createdAt,value
2023-05-25T00:00:19.310Z,2.60
2023-05-25T00:01:21.162Z,2.80
2023-05-25T00:02:24.748Z,3.07
2023-05-25T00:03:28.388Z,2.90
2023-05-25T00:04:34.791Z,3.00
2023-05-25T00:05:38.406Z,3.00
2023-05-25T00:06:41.394Z,2.63
2023-05-25T00:07:43.318Z,2.90
2023-05-25T00:08:46.624Z,2.90
2023-05-25T00:09:48.677Z,3.10
2023-05-25T00:10:50.676Z,2.93
2023-05-25T00:11:52.899Z,2.33
2023-05-25T00:12:57.033Z,2.57
2023-05-25T00:13:58.870Z,2.93
2023-05-25T00:15:01.313Z,3.00
2023-05-25T00:16:03.258Z,2.65
2023-05-25T00:17:05.741Z,2.57
2023-05-25T00:18:07.898Z,2.80
2023-05-25T00:19:13.146Z,2.80
2023-05-25T00:20:16.073Z,2.80
2023-05-25T00:21:18.259Z,3.30
2023-05-25T00:22:20.578Z,2.60
2023-05-25T00:23:22.474Z,2.70
2023-05-25T00:24:24.273Z,2.67
2023-05-25T00:25:26.412Z,2.70
2023-05-25T00:26:28.298Z,2.90
2023-05-25T00:27:31.079Z,2.77
2023-05-25T00:28:32.993Z,2.77
2023-05-25T00:29:36.259Z,2.53
2023-05-25T00:30:38.743Z,2.60
2023-05-25T00:31:41.191Z,3.15
2023-05-25T00:32:43.027Z,2.80
2023-05-25T00:33:45.830Z,3.30
2023-05-25T00:34:48.202Z,2.93
2023-05-25T00:35:50.094Z,3.20
2023-05-25T00:36:52.842Z,2.50
2023-05-25T00:37:54.711Z,2.97
2023-05-25T00:38:56.650Z,2.70
2023-05-25T00:39:58.446Z,2.83
2023-05-25T00:41:00.557Z,3.40
2023-05-25T00:42:03.159Z,2.95
2023-05-25T00:43:05.719Z,3.07
2023-05-25T00:44:09.373Z,2.93
2023-05-25T00:45:11.775Z,3.25
2023-05-25T00:46:17.190Z,2.93
2023-05-25T00:47:19.562Z,2.87
2023-05-25T00:48:22.649Z,2.90
2023-05-25T00:49:24.830Z,2.70
2023-05-25T00:50:42.047Z,2.83
2023-05-25T00:51:47.913Z,3.27
2023-05-25T00:52:50.367Z,2.43
2023-05-25T00:53:52.408Z,2.70
2023-05-25T00:55:00.776Z,3.13
2023-05-25T00:56:13.916Z,3.03
2023-05-25T00:57:18.264Z,2.77
2023-05-25T00:58:22.761Z,2.78
2023-05-25T00:59:41.271Z,2.65
2023-05-25T01:00:45.584Z,3.10
2023-05-25T01:01:48.727Z,3.20
2023-05-25T01:02:53.094Z,2.80
2023-05-25T01:03:57.705Z,3.03
2023-05-25T01:05:02.823Z,2.97
2023-05-25T01:06:11.709Z,3.07
2023-05-25T01:07:18.834Z,2.93
2023-05-25T01:08:23.055Z,2.90
2023-05-25T01:09:28.082Z,2.70
2023-05-25T01:10:33.059Z,3.00
2023-05-25T01:11:38.825Z,2.80
2023-05-25T01:12:42.401Z,3.10
2023-05-25T01:13:45.421Z,2.90
2023-05-25T01:14:48.536Z,3.07
2023-05-25T01:15:52.580Z,2.93
2023-05-25T01:16:59.004Z,2.90
2023-05-25T01:18:01.954Z,2.57
2023-05-25T01:19:04.622Z,2.92
2023-05-25T01:20:11.348Z,3.00
2023-05-25T01:21:22.981Z,3.40
2023-05-25T01:22:34.211Z,3.13
2023-05-25T01:23:37.760Z,2.73
2023-05-25T01:24:50.918Z,3.20
2023-05-25T01:25:58.015Z,3.60
2023-05-25T01:27:22.874Z,3.43
2023-05-25T01:28:31.035Z,3.10
2023-05-25T01:29:35.062Z,3.05
2023-05-25T01:30:39.522Z,2.90
2023-05-25T01:31:41.721Z,3.83
2023-05-25T01:32:45.100Z,3.10
2023-05-25T01:33:48.989Z,3.47
2023-05-25T01:34:52.300Z,3.30
2023-05-25T01:35:54.386Z,3.43
2023-05-25T01:36:56.710Z,3.30
2023-05-25T01:37:59.065Z,2.83
2023-05-25T01:39:01.177Z,3.07
2023-05-25T01:40:05.523Z,3.33
2023-05-25T01:41:07.471Z,3.37
2023-05-25T01:42:09.500Z,3.20
2023-05-25T01:43:11.330Z,3.20
2023-05-25T01:44:13.489Z,3.00
2023-05-25T01:45:16.855Z,3.30
2023-05-25T01:46:37.443Z,3.17
2023-05-25T01:47:51.567Z,3.27
2023-05-25T01:49:02.619Z,3.10
2023-05-25T01:50:34.107Z,2.80
2023-05-25T01:51:41.416Z,3.10
2023-05-25T01:52:48.287Z,3.27
2023-05-25T01:53:57.329Z,3.37
2023-05-25T01:55:30.052Z,3.20
2023-05-25T01:56:34.029Z,3.13
2023-05-25T01:57:37.840Z,3.70
2023-05-25T01:58:42.788Z,3.50
2023-05-25T01:59:47.853Z,3.53
2023-05-25T02:00:51.594Z,3.47
2023-05-25T02:01:54.755Z,3.38
2023-05-25T02:02:57.203Z,3.27
2023-05-25T02:03:59.512Z,3.53
2023-05-25T02:05:01.632Z,3.70
2023-05-25T02:06:04.011Z,3.60
2023-05-25T02:07:06.248Z,3.93
2023-05-25T02:08:08.110Z,3.67
2023-05-25T02:09:09.897Z,3.30
2023-05-25T02:10:11.697Z,3.30
2023-05-25T02:11:16.788Z,3.73
2023-05-25T02:12:18.691Z,3.50
2023-05-25T02:13:20.878Z,3.87
2023-05-25T02:14:22.970Z,3.47
2023-05-25T02:15:24.853Z,3.73
2023-05-25T02:16:27.617Z,3.50
2023-05-25T02:17:30.279Z,3.60
2023-05-25T02:18:32.175Z,3.65
2023-05-25T02:19:35.480Z,3.60
2023-05-25T02:20:37.922Z,3.30
2023-05-25T02:21:39.753Z,3.77
2023-05-25T02:22:41.607Z,4.00
2023-05-25T02:23:43.679Z,3.10
2023-05-25T02:24:46.599Z,3.27
2023-05-25T02:25:48.377Z,3.67
2023-05-25T02:26:50.870Z,3.70
2023-05-25T02:27:52.665Z,3.87
2023-05-25T02:28:54.656Z,3.33
2023-05-25T02:29:56.467Z,3.07
2023-05-25T02:30:58.340Z,3.50
2023-05-25T02:32:00.118Z,3.67
2023-05-25T02:33:02.510Z,3.33
2023-05-25T02:34:04.421Z,3.97
2023-05-25T02:35:06.647Z,4.00
2023-05-25T02:36:08.810Z,3.73
2023-05-25T02:37:10.640Z,3.57
2023-05-25T02:38:12.443Z,3.77
2023-05-25T02:39:14.472Z,3.70
2023-05-25T02:40:17.778Z,3.70
2023-05-25T02:41:20.830Z,3.80
2023-05-25T02:42:22.650Z,3.50
2023-05-25T02:43:24.576Z,3.83
2023-05-25T02:44:26.816Z,3.53
2023-05-25T02:45:28.774Z,3.80
2023-05-25T02:46:30.840Z,3.30
2023-05-25T02:47:32.706Z,4.03
2023-05-25T02:48:34.595Z,4.10
2023-05-25T02:49:36.469Z,3.85
2023-05-25T02:50:38.297Z,3.70
2023-05-25T02:51:40.248Z,3.93
2023-05-25T02:52:42.082Z,4.33
2023-05-25T02:53:43.898Z,4.10
2023-05-25T02:54:45.895Z,4.30
2023-05-25T02:55:47.740Z,3.80
2023-05-25T02:56:49.560Z,3.83
2023-05-25T02:57:51.892Z,4.23
2023-05-25T02:58:53.848Z,3.80
2023-05-25T02:59:56.303Z,4.10
2023-05-25T03:01:00.920Z,3.97
2023-05-25T03:02:02.739Z,4.50
2023-05-25T03:03:04.723Z,4.40
2023-05-25T03:04:06.688Z,4.30
2023-05-25T03:05:09.017Z,4.00
2023-05-25T03:06:12.944Z,4.67
2023-05-25T03:07:14.710Z,3.50
2023-05-25T03:08:16.776Z,3.67
2023-05-25T03:09:18.649Z,4.20
2023-05-25T03:10:20.426Z,4.63
2023-05-25T03:11:22.705Z,4.33
2023-05-25T03:12:24.525Z,4.27
2023-05-25T03:13:26.775Z,3.93
2023-05-25T03:14:28.546Z,4.77
2023-05-25T03:15:30.624Z,4.30
2023-05-25T03:16:36.429Z,4.27
2023-05-25T03:17:38.606Z,4.10
2023-05-25T03:18:40.523Z,4.67
2023-05-25T03:19:42.602Z,4.73
2023-05-25T03:20:45.797Z,3.93
2023-05-25T03:21:47.724Z,4.10
2023-05-25T03:22:49.603Z,4.00
2023-05-25T03:23:54.519Z,4.00
2023-05-25T03:24:56.388Z,4.47
2023-05-25T03:25:58.243Z,4.60
2023-05-25T03:26:59.984Z,3.77
2023-05-25T03:28:01.758Z,4.13
2023-05-25T03:29:03.581Z,4.30
2023-05-25T03:30:06.326Z,4.43
2023-05-25T03:31:08.288Z,4.10
2023-05-25T03:32:10.167Z,4.30
2023-05-25T03:33:13.861Z,3.90
2023-05-25T03:34:16.063Z,4.30
2023-05-25T03:35:18.102Z,4.13
2023-05-25T03:36:19.963Z,3.90
2023-05-25T03:37:22.227Z,4.53
2023-05-25T03:38:24.095Z,4.27
2023-05-25T03:39:25.968Z,3.60
2023-05-25T03:40:27.700Z,4.03
2023-05-25T03:41:29.532Z,4.40
2023-05-25T03:42:31.270Z,4.30
2023-05-25T03:43:33.489Z,4.33
2023-05-25T03:44:35.613Z,4.13
2023-05-25T03:45:37.396Z,4.30
2023-05-25T03:46:39.395Z,4.43
2023-05-25T03:47:41.430Z,4.67
2023-05-25T03:48:43.391Z,4.23
2023-05-25T03:49:45.528Z,3.93
2023-05-25T03:50:47.300Z,4.40
2023-05-25T03:51:49.178Z,4.57
2023-05-25T03:52:51.125Z,4.57
2023-05-25T03:53:52.910Z,4.27
2023-05-25T03:54:54.754Z,4.20
2023-05-25T03:55:56.658Z,4.87
2023-05-25T03:57:03.638Z,4.87
2023-05-25T03:58:05.699Z,4.77
2023-05-25T03:59:07.597Z,4.80
2023-05-25T04:00:10.559Z,4.30
2023-05-25T04:01:13.791Z,4.63
2023-05-25T04:02:15.828Z,4.20
2023-05-25T04:03:17.768Z,4.53
2023-05-25T04:04:20.718Z,4.37
2023-05-25T04:05:23.054Z,4.10
2023-05-25T04:06:30.194Z,5.00
2023-05-25T04:07:32.068Z,4.80
2023-05-25T04:08:34.098Z,4.77
2023-05-25T04:09:35.911Z,4.40
2023-05-25T04:10:37.684Z,4.80
2023-05-25T04:11:39.809Z,5.00
2023-05-25T04:12:41.568Z,5.40
2023-05-25T04:13:43.675Z,4.70
2023-05-25T04:14:46.336Z,4.80
2023-05-25T04:15:48.245Z,4.90
2023-05-25T04:16:50.145Z,4.80
2023-05-25T04:17:52.173Z,4.73
2023-05-25T04:18:54.208Z,4.70
2023-05-25T04:19:56.948Z,4.87
2023-05-25T04:20:58.882Z,4.90
2023-05-25T04:22:00.739Z,4.43
2023-05-25T04:23:02.476Z,5.20
2023-05-25T04:24:04.329Z,4.57
2023-05-25T04:25:08.053Z,5.00
2023-05-25T04:26:10.904Z,4.90
2023-05-25T04:27:14.392Z,4.80
2023-05-25T04:28:16.300Z,4.83
2023-05-25T04:29:18.053Z,4.57
2023-05-25T04:30:20.112Z,5.13
2023-05-25T04:31:22.173Z,4.72
2023-05-25T04:32:24.063Z,4.63
2023-05-25T04:33:29.976Z,5.43
2023-05-25T04:34:33.945Z,4.30
2023-05-25T04:35:36.723Z,4.43
2023-05-25T04:36:38.784Z,4.43
2023-05-25T04:37:40.928Z,4.70
2023-05-25T04:38:43.087Z,4.33
2023-05-25T04:39:45.117Z,4.90
2023-05-25T04:40:46.988Z,5.03
2023-05-25T04:41:48.772Z,4.97
2023-05-25T04:42:54.087Z,4.63
2023-05-25T04:44:07.997Z,4.97
2023-05-25T04:45:12.043Z,4.53
2023-05-25T04:46:13.964Z,4.40
2023-05-25T04:47:17.140Z,5.00
2023-05-25T04:48:19.031Z,5.10
2023-05-25T04:49:21.564Z,4.17
2023-05-25T04:50:23.441Z,4.40
2023-05-25T04:51:25.437Z,4.50
2023-05-25T04:52:27.347Z,5.53
2023-05-25T04:53:29.990Z,4.73
2023-05-25T04:54:32.085Z,5.03
2023-05-25T04:55:33.874Z,4.87
2023-05-25T04:56:35.754Z,4.70
2023-05-25T04:57:37.560Z,5.33
2023-05-25T04:58:39.357Z,5.00
2023-05-25T04:59:42.364Z,4.83
2023-05-25T05:00:44.418Z,4.63
2023-05-25T05:01:46.420Z,5.37
2023-05-25T05:02:48.846Z,5.50
2023-05-25T05:03:50.789Z,5.10
2023-05-25T05:04:53.979Z,5.73
2023-05-25T05:05:55.957Z,4.93
2023-05-25T05:06:59.148Z,4.77
2023-05-25T05:08:01.395Z,4.80
2023-05-25T05:09:03.750Z,5.17
2023-05-25T05:10:06.361Z,4.90
2023-05-25T05:11:08.355Z,5.50
2023-05-25T05:12:11.996Z,4.80
2023-05-25T05:13:14.293Z,5.63
2023-05-25T05:14:17.065Z,5.00
2023-05-25T05:15:19.242Z,5.50
2023-05-25T05:16:21.710Z,5.10
2023-05-25T05:17:24.232Z,5.10
2023-05-25T05:18:26.038Z,4.90
2023-05-25T05:19:28.578Z,5.60
2023-05-25T05:20:30.428Z,5.07
2023-05-25T05:21:32.225Z,5.03
2023-05-25T05:22:34.391Z,5.38
2023-05-25T05:23:36.480Z,5.17
2023-05-25T05:24:38.279Z,5.67
2023-05-25T05:25:40.020Z,5.10
2023-05-25T05:26:56.194Z,5.33
2023-05-25T05:28:00.590Z,5.00
2023-05-25T05:29:02.391Z,5.55
2023-05-25T05:30:04.652Z,5.32
2023-05-25T05:31:07.514Z,5.77
2023-05-25T05:32:09.487Z,5.17
2023-05-25T05:33:11.379Z,5.13
2023-05-25T05:34:13.242Z,4.80
2023-05-25T05:35:15.122Z,5.03
2023-05-25T05:36:17.042Z,4.70
2023-05-25T05:37:18.898Z,5.47
2023-05-25T05:38:21.314Z,5.20
2023-05-25T05:39:23.209Z,5.33
2023-05-25T05:40:26.875Z,5.50
2023-05-25T05:41:28.961Z,5.13
2023-05-25T05:42:31.252Z,4.40
2023-05-25T05:43:33.064Z,5.40
2023-05-25T05:44:35.231Z,5.57
2023-05-25T05:45:37.085Z,4.93
2023-05-25T05:46:38.991Z,5.57
2023-05-25T05:47:41.480Z,5.07
2023-05-25T05:48:43.377Z,5.22
2023-05-25T05:49:45.140Z,5.70
2023-05-25T05:50:47.051Z,5.70
2023-05-25T05:51:48.825Z,5.32
2023-05-25T05:52:50.738Z,5.57
2023-05-25T05:53:52.629Z,5.03
2023-05-25T05:54:54.543Z,5.03
2023-05-25T05:55:59.181Z,5.40
2023-05-25T05:57:02.071Z,5.18
2023-05-25T05:58:03.989Z,5.43
2023-05-25T05:59:05.889Z,5.40
2023-05-25T06:00:08.925Z,4.75
2023-05-25T06:01:11.041Z,5.13
2023-05-25T06:02:12.953Z,5.13
2023-05-25T06:03:14.793Z,5.30
2023-05-25T06:04:17.542Z,5.35
2023-05-25T06:05:20.229Z,4.93
2023-05-25T06:06:22.164Z,5.20
2023-05-25T06:07:23.976Z,5.60
2023-05-25T06:08:26.342Z,5.45
2023-05-25T06:09:28.193Z,4.97
2023-05-25T06:10:30.034Z,5.68
2023-05-25T06:11:31.901Z,4.45
2023-05-25T06:12:33.931Z,5.05
2023-05-25T06:13:35.728Z,4.75
2023-05-25T06:14:37.748Z,4.88
2023-05-25T06:15:39.597Z,6.03
2023-05-25T06:16:43.681Z,5.10
2023-05-25T06:17:46.359Z,5.13
2023-05-25T06:18:48.202Z,4.60
2023-05-25T06:19:50.156Z,4.50
2023-05-25T06:20:52.190Z,5.40
2023-05-25T06:21:53.999Z,5.35
2023-05-25T06:22:55.989Z,4.90
2023-05-25T06:23:57.888Z,5.68
2023-05-25T06:25:00.770Z,5.05
2023-05-25T06:26:06.549Z,5.07
2023-05-25T06:27:08.512Z,5.30
2023-05-25T06:28:10.593Z,5.22
2023-05-25T06:29:16.722Z,5.22
2023-05-25T06:30:19.022Z,4.95
2023-05-25T06:31:21.193Z,5.60
2023-05-25T06:32:23.159Z,5.43
2023-05-25T06:33:25.197Z,5.35
2023-05-25T06:34:27.100Z,4.95
2023-05-25T06:35:29.501Z,5.38
2023-05-25T06:36:32.793Z,5.25
2023-05-25T06:37:38.009Z,4.90
2023-05-25T06:38:39.938Z,5.57
2023-05-25T06:39:43.201Z,5.45
2023-05-25T06:40:45.072Z,5.13
2023-05-25T06:41:46.868Z,5.10
2023-05-25T06:42:48.713Z,5.85
2023-05-25T06:43:50.593Z,5.25
2023-05-25T06:44:52.429Z,5.40
2023-05-25T06:45:54.222Z,5.75
2023-05-25T06:46:56.180Z,5.72
2023-05-25T06:47:58.228Z,5.25
2023-05-25T06:49:01.334Z,5.82
2023-05-25T06:50:03.696Z,5.22
2023-05-25T06:51:06.143Z,5.72
2023-05-25T06:52:07.964Z,5.63
2023-05-25T06:53:11.136Z,5.30
2023-05-25T06:54:14.981Z,5.43
2023-05-25T06:55:17.191Z,5.35
2023-05-25T06:56:19.138Z,5.75
2023-05-25T06:57:21.181Z,5.82
2023-05-25T06:58:23.077Z,5.80
2023-05-25T06:59:24.925Z,5.45
2023-05-25T07:00:26.918Z,5.25
2023-05-25T07:01:28.920Z,5.05
2023-05-25T07:02:30.914Z,5.20
2023-05-25T07:03:33.171Z,5.55
2023-05-25T07:04:35.106Z,5.32
2023-05-25T07:05:36.921Z,5.25
2023-05-25T07:06:38.769Z,5.47
2023-05-25T07:07:40.575Z,5.22
2023-05-25T07:08:42.688Z,5.28
2023-05-25T07:09:44.488Z,5.95
2023-05-25T07:10:47.969Z,5.72
2023-05-25T07:11:51.113Z,5.65
2023-05-25T07:12:52.896Z,5.18
2023-05-25T07:13:54.718Z,5.32
2023-05-25T07:14:58.034Z,5.00
2023-05-25T07:15:59.870Z,5.80
2023-05-25T07:17:01.715Z,5.85
2023-05-25T07:18:03.615Z,6.28
2023-05-25T07:19:05.542Z,5.40
2023-05-25T07:20:08.867Z,5.55
2023-05-25T07:21:11.341Z,5.57
2023-05-25T07:22:13.279Z,5.15
2023-05-25T07:23:15.122Z,5.68
2023-05-25T07:24:18.294Z,5.57
2023-05-25T07:25:21.290Z,5.68
2023-05-25T07:26:23.443Z,5.35
2023-05-25T07:27:25.567Z,5.80
2023-05-25T07:28:27.440Z,5.10
2023-05-25T07:29:29.497Z,6.20
2023-05-25T07:30:31.380Z,5.55
2023-05-25T07:31:33.466Z,5.22
2023-05-25T07:32:35.566Z,5.78
2023-05-25T07:33:37.356Z,5.40
2023-05-25T07:34:39.434Z,5.28
2023-05-25T07:35:41.271Z,5.40
2023-05-25T07:36:43.044Z,6.18
2023-05-25T07:37:44.959Z,5.07
2023-05-25T07:38:47.657Z,6.13
2023-05-25T07:39:50.637Z,5.30
2023-05-25T07:40:52.658Z,5.30
2023-05-25T07:41:54.573Z,6.28
2023-05-25T07:42:57.026Z,5.70
2023-05-25T07:43:59.054Z,5.55
2023-05-25T07:45:01.763Z,5.50
2023-05-25T07:46:03.623Z,6.30
2023-05-25T07:47:07.031Z,5.75
2023-05-25T07:48:09.676Z,4.97
2023-05-25T07:49:15.884Z,5.50
2023-05-25T07:50:18.356Z,5.88
2023-05-25T07:51:23.298Z,5.40
2023-05-25T07:52:25.118Z,5.80
2023-05-25T07:53:26.993Z,5.85
2023-05-25T07:54:28.856Z,5.30
2023-05-25T07:55:30.819Z,6.40
2023-05-25T07:56:32.927Z,5.85
2023-05-25T07:57:35.418Z,5.80
2023-05-25T07:58:37.215Z,6.13
2023-05-25T07:59:39.102Z,5.63
2023-05-25T08:00:41.005Z,6.07
2023-05-25T08:01:42.829Z,5.88
2023-05-25T08:02:44.853Z,6.15
2023-05-25T08:03:49.652Z,5.40
2023-05-25T08:04:52.321Z,5.85
2023-05-25T08:05:54.147Z,5.25
2023-05-25T08:06:56.221Z,5.97
2023-05-25T08:07:58.630Z,6.03
2023-05-25T08:09:00.525Z,6.10
2023-05-25T08:10:03.228Z,5.75
2023-05-25T08:11:05.093Z,5.38
2023-05-25T08:12:24.121Z,5.78
2023-05-25T08:13:28.968Z,6.63
2023-05-25T08:14:30.748Z,5.70
2023-05-25T08:15:32.732Z,5.55
2023-05-25T08:16:34.608Z,6.13
2023-05-25T08:17:36.468Z,5.43
2023-05-25T08:18:38.337Z,5.90
2023-05-25T08:19:40.132Z,5.90
2023-05-25T08:20:42.184Z,5.15
2023-05-25T08:21:44.153Z,5.50
2023-05-25T08:22:45.967Z,6.32
2023-05-25T08:23:47.945Z,5.90
2023-05-25T08:24:49.898Z,5.20
2023-05-25T08:25:51.654Z,5.95
2023-05-25T08:26:55.157Z,5.68
2023-05-25T08:27:57.095Z,5.80
2023-05-25T08:28:58.983Z,5.78
2023-05-25T08:30:00.804Z,5.55
2023-05-25T08:31:02.979Z,6.43
2023-05-25T08:32:04.984Z,6.20
2023-05-25T08:33:07.284Z,5.55
2023-05-25T08:34:09.487Z,5.85
2023-05-25T08:35:13.981Z,5.60
2023-05-25T08:36:16.228Z,5.63
2023-05-25T08:37:20.083Z,5.50
2023-05-25T08:38:25.752Z,5.60
2023-05-25T08:39:27.692Z,6.13
2023-05-25T08:40:32.663Z,5.60
2023-05-25T08:41:42.114Z,5.57
2023-05-25T08:42:45.854Z,5.60
2023-05-25T08:43:47.737Z,6.32
2023-05-25T08:44:50.000Z,5.25
2023-05-25T08:45:52.087Z,5.47
2023-05-25T08:46:56.948Z,6.07
2023-05-25T08:48:00.281Z,5.85
2023-05-25T08:49:13.363Z,6.10
2023-05-25T08:50:17.165Z,5.97
2023-05-25T08:51:19.878Z,6.82
2023-05-25T08:52:24.176Z,6.25
2023-05-25T08:53:28.043Z,5.90
2023-05-25T08:54:34.523Z,5.40
2023-05-25T08:55:39.236Z,6.05
2023-05-25T08:56:52.285Z,6.15
2023-05-25T08:58:13.018Z,6.07
2023-05-25T08:59:52.154Z,5.75
2023-05-25T09:01:02.888Z,6.70
2023-05-25T09:02:38.179Z,6.22
2023-05-25T09:03:41.270Z,5.65
2023-05-25T09:04:44.179Z,5.88
2023-05-25T09:05:46.800Z,5.40
2023-05-25T09:07:01.673Z,6.07
2023-05-25T09:08:11.201Z,5.40
2023-05-25T09:09:13.385Z,5.60
2023-05-25T09:10:16.013Z,6.07
2023-05-25T09:11:34.841Z,6.10
2023-05-25T09:12:39.330Z,5.78
2023-05-25T09:13:42.142Z,5.38
2023-05-25T09:14:48.396Z,6.13
2023-05-25T09:15:51.978Z,6.28
2023-05-25T09:16:53.929Z,5.82
2023-05-25T09:17:55.850Z,6.20
2023-05-25T09:18:58.959Z,6.20
2023-05-25T09:20:00.971Z,5.93
2023-05-25T09:21:03.082Z,5.38
2023-05-25T09:22:15.097Z,5.97
2023-05-25T09:23:18.955Z,6.07
2023-05-25T09:24:22.317Z,6.95
2023-05-25T09:25:26.264Z,6.22
2023-05-25T09:26:28.904Z,5.95
2023-05-25T09:27:37.111Z,6.10
2023-05-25T09:28:48.032Z,6.32
2023-05-25T09:29:50.777Z,6.45
2023-05-25T09:30:52.792Z,5.70
2023-05-25T09:31:54.961Z,5.90
2023-05-25T09:32:58.192Z,5.55
2023-05-25T09:34:00.647Z,6.00
2023-05-25T09:35:15.632Z,6.38
2023-05-25T09:36:20.163Z,6.20
2023-05-25T09:37:22.199Z,5.88
2023-05-25T09:38:24.262Z,5.35
2023-05-25T09:39:27.195Z,5.70
2023-05-25T09:40:30.671Z,5.78
2023-05-25T09:41:32.463Z,5.60
2023-05-25T09:42:34.394Z,5.78
2023-05-25T09:43:44.508Z,5.70
2023-05-25T09:44:48.697Z,5.78
2023-05-25T09:45:53.226Z,5.38
2023-05-25T09:46:55.955Z,5.63
2023-05-25T09:47:58.997Z,5.40
2023-05-25T09:49:00.967Z,5.57
2023-05-25T09:50:03.723Z,6.13
2023-05-25T09:51:07.696Z,5.97
2023-05-25T09:52:09.521Z,5.80
2023-05-25T09:53:11.927Z,5.57
2023-05-25T09:54:13.981Z,5.60
2023-05-25T09:55:16.447Z,5.30
2023-05-25T09:56:19.213Z,5.53
2023-05-25T09:57:21.345Z,6.05
2023-05-25T09:58:25.220Z,5.15
2023-05-25T09:59:27.663Z,6.18
2023-05-25T10:00:29.498Z,6.28
2023-05-25T10:01:32.993Z,6.03
2023-05-25T10:02:35.990Z,5.60
2023-05-25T10:03:59.457Z,4.53
2023-05-25T10:05:07.479Z,5.90
2023-05-25T10:06:09.581Z,5.80
2023-05-25T10:07:11.889Z,5.13
2023-05-25T10:08:14.153Z,4.97
2023-05-25T10:09:19.739Z,5.30
2023-05-25T10:10:21.898Z,5.68
2023-05-25T10:11:26.767Z,5.50
2023-05-25T10:12:30.510Z,5.72
2023-05-25T10:13:33.464Z,5.18
2023-05-25T10:14:37.423Z,5.25
2023-05-25T10:15:41.886Z,5.65
2023-05-25T10:16:50.010Z,5.00
2023-05-25T10:17:58.506Z,5.35
2023-05-25T10:19:18.360Z,5.22
2023-05-25T10:20:23.590Z,5.03
2023-05-25T10:21:29.069Z,4.75
2023-05-25T10:22:40.422Z,5.15
2023-05-25T10:23:51.109Z,5.65
2023-05-25T10:25:08.140Z,5.22
2023-05-25T10:26:11.150Z,5.28
2023-05-25T10:27:26.448Z,4.97
2023-05-25T10:28:32.179Z,5.57
2023-05-25T10:29:35.858Z,5.25
2023-05-25T10:30:39.547Z,5.65
2023-05-25T10:31:42.266Z,5.32
2023-05-25T10:32:46.988Z,4.72
2023-05-25T10:33:52.059Z,5.22
2023-05-25T10:34:56.999Z,5.32
2023-05-25T10:36:09.233Z,5.07
2023-05-25T10:37:14.788Z,5.32
2023-05-25T10:38:18.522Z,4.50
2023-05-25T10:39:21.558Z,4.70
2023-05-25T10:40:24.181Z,5.25
2023-05-25T10:41:26.278Z,4.80
2023-05-25T10:42:28.439Z,4.97
2023-05-25T10:43:30.994Z,5.10
2023-05-25T10:44:33.055Z,4.53
2023-05-25T10:45:35.655Z,5.20
2023-05-25T10:46:37.666Z,5.03
2023-05-25T10:47:46.305Z,4.72
2023-05-25T10:48:49.468Z,4.82
2023-05-25T10:49:53.602Z,5.00
2023-05-25T10:50:55.528Z,5.10
2023-05-25T10:52:03.535Z,5.25
2023-05-25T10:53:12.707Z,5.15
2023-05-25T10:54:15.278Z,4.90
2023-05-25T10:55:17.174Z,5.20
2023-05-25T10:56:19.153Z,4.68
2023-05-25T10:57:22.571Z,4.47
2023-05-25T10:58:28.145Z,4.72
2023-05-25T10:59:29.992Z,4.75
2023-05-25T11:00:32.275Z,4.32
2023-05-25T11:01:51.596Z,4.68
2023-05-25T11:02:55.709Z,4.90
2023-05-25T11:04:14.884Z,5.00
2023-05-25T11:05:32.522Z,4.78
2023-05-25T11:06:37.788Z,4.68
2023-05-25T11:07:56.467Z,4.88
2023-05-25T11:08:59.440Z,4.68
2023-05-25T11:10:01.509Z,4.50
2023-05-25T11:11:03.389Z,4.65
2023-05-25T11:12:06.517Z,4.90
2023-05-25T11:13:34.286Z,5.10
2023-05-25T11:14:42.575Z,4.45
2023-05-25T11:15:44.531Z,4.40
2023-05-25T11:17:20.083Z,4.70
2023-05-25T11:18:21.997Z,4.50
2023-05-25T11:19:23.749Z,4.60
2023-05-25T11:20:28.385Z,5.15
2023-05-25T11:21:34.735Z,4.68
2023-05-25T11:22:37.590Z,4.70
2023-05-25T11:23:52.787Z,4.88
2023-05-25T11:24:57.219Z,5.15
2023-05-25T11:26:06.771Z,5.10
2023-05-25T11:27:08.994Z,4.68
2023-05-25T11:28:12.045Z,4.53
2023-05-25T11:29:15.866Z,4.80
2023-05-25T11:30:20.533Z,4.55
2023-05-25T11:31:38.803Z,4.35
2023-05-25T11:32:50.794Z,4.90
2023-05-25T11:34:01.589Z,5.10
2023-05-25T11:35:06.787Z,5.28
2023-05-25T11:36:08.658Z,4.35
2023-05-25T11:37:12.209Z,4.57
2023-05-25T11:38:16.677Z,4.57
2023-05-25T11:39:23.389Z,4.75
2023-05-25T11:40:25.641Z,4.72
2023-05-25T11:41:27.989Z,4.72
2023-05-25T11:42:30.946Z,4.55
2023-05-25T11:43:35.362Z,4.43
2023-05-25T11:44:38.976Z,4.65
2023-05-25T11:45:41.524Z,4.68
2023-05-25T11:46:43.770Z,4.80
2023-05-25T11:47:45.756Z,4.35
2023-05-25T11:48:52.579Z,4.40
2023-05-25T11:49:55.866Z,4.30
2023-05-25T11:51:06.228Z,4.57
2023-05-25T11:52:08.300Z,4.63
2023-05-25T11:53:11.239Z,4.38
2023-05-25T11:54:30.705Z,4.68
2023-05-25T11:55:32.630Z,4.80
2023-05-25T11:56:35.963Z,4.55
2023-05-25T11:57:39.164Z,4.88
2023-05-25T11:58:41.982Z,4.25
2023-05-25T11:59:57.635Z,4.93
2023-05-25T12:01:19.342Z,4.75
2023-05-25T12:02:22.064Z,4.43
2023-05-25T12:03:34.585Z,4.80
2023-05-25T12:04:36.986Z,4.70
2023-05-25T12:05:39.715Z,4.45
2023-05-25T12:06:41.758Z,4.65
2023-05-25T12:07:46.702Z,4.72
2023-05-25T12:08:48.570Z,4.53
2023-05-25T12:09:50.528Z,4.60
2023-05-25T12:10:52.537Z,4.18
2023-05-25T12:11:54.497Z,4.10
2023-05-25T12:12:58.410Z,4.72
2023-05-25T12:14:01.351Z,4.55
2023-05-25T12:15:03.786Z,4.53
2023-05-25T12:16:07.084Z,4.38
2023-05-25T12:17:09.277Z,4.68
2023-05-25T12:18:11.259Z,4.40
2023-05-25T12:19:13.989Z,5.10
2023-05-25T12:20:17.651Z,4.65
2023-05-25T12:21:21.679Z,4.40
2023-05-25T12:22:23.790Z,4.20
2023-05-25T12:23:26.056Z,4.78
2023-05-25T12:24:27.992Z,4.50
2023-05-25T12:25:42.364Z,4.90
2023-05-25T12:26:59.232Z,4.97
2023-05-25T12:28:14.873Z,4.68
2023-05-25T12:29:17.599Z,4.68
2023-05-25T12:30:27.681Z,4.70
2023-05-25T12:31:38.505Z,5.18
2023-05-25T12:33:03.830Z,4.15
2023-05-25T12:34:06.875Z,4.10
2023-05-25T12:35:08.978Z,4.28
2023-05-25T12:36:10.961Z,4.40
2023-05-25T12:37:20.448Z,4.43
2023-05-25T12:38:22.324Z,4.20
2023-05-25T12:39:30.667Z,4.65
2023-05-25T12:40:32.463Z,4.32
2023-05-25T12:41:55.019Z,4.70
2023-05-25T12:42:57.793Z,5.40
2023-05-25T12:43:59.681Z,4.60
2023-05-25T12:45:02.121Z,4.60
2023-05-25T12:46:03.982Z,4.50
2023-05-25T12:47:28.118Z,4.85
2023-05-25T12:48:30.040Z,5.15
2023-05-25T12:49:33.269Z,4.70
2023-05-25T12:50:35.451Z,5.55
2023-05-25T12:51:40.363Z,5.93
2023-05-25T12:52:44.478Z,6.10
2023-05-25T12:53:47.912Z,6.28
2023-05-25T12:54:49.890Z,5.80
2023-05-25T12:56:01.657Z,5.43
2023-05-25T12:57:08.341Z,5.20
2023-05-25T12:58:27.401Z,5.13
2023-05-25T12:59:31.322Z,5.35
2023-05-25T13:00:38.399Z,4.93
2023-05-25T13:01:40.997Z,4.72
2023-05-25T13:02:47.885Z,4.82
2023-05-25T13:03:53.875Z,4.90
2023-05-25T13:04:55.810Z,4.93
2023-05-25T13:06:02.537Z,5.10
2023-05-25T13:07:06.126Z,4.55
2023-05-25T13:08:08.125Z,4.80
2023-05-25T13:09:10.263Z,4.65
2023-05-25T13:10:17.803Z,4.80
2023-05-25T13:11:19.822Z,5.22
2023-05-25T13:12:21.712Z,5.07
2023-05-25T13:13:23.474Z,5.53
2023-05-25T13:14:26.547Z,5.38
2023-05-25T13:15:28.681Z,5.57
2023-05-25T13:16:33.339Z,5.07
2023-05-25T13:17:35.762Z,5.03
2023-05-25T13:18:37.869Z,5.10
2023-05-25T13:19:40.435Z,5.07
2023-05-25T13:20:42.589Z,4.97
2023-05-25T13:21:45.878Z,5.10
2023-05-25T13:22:50.394Z,5.68
2023-05-25T13:23:52.284Z,5.30
2023-05-25T13:24:54.161Z,5.05
2023-05-25T13:25:56.088Z,4.88
2023-05-25T13:26:57.869Z,4.80
2023-05-25T13:28:01.125Z,5.10
2023-05-25T13:29:03.238Z,5.03
2023-05-25T13:30:08.580Z,4.40
2023-05-25T13:31:10.778Z,5.57
2023-05-25T13:32:12.601Z,5.07
2023-05-25T13:33:14.663Z,4.40
2023-05-25T13:34:16.526Z,4.93
2023-05-25T13:35:23.987Z,5.63
2023-05-25T13:36:26.258Z,4.55
2023-05-25T13:37:28.509Z,5.15
2023-05-25T13:38:30.697Z,4.57
2023-05-25T13:39:32.529Z,5.20
2023-05-25T13:40:34.642Z,4.95
2023-05-25T13:41:36.470Z,4.82
2023-05-25T13:42:38.267Z,5.07
2023-05-25T13:43:40.123Z,5.00
2023-05-25T13:44:42.282Z,4.80
2023-05-25T13:45:44.427Z,4.60
2023-05-25T13:46:46.845Z,4.95
2023-05-25T13:47:48.904Z,4.60
2023-05-25T13:48:50.917Z,4.90
2023-05-25T13:49:52.666Z,4.72
2023-05-25T13:50:54.553Z,4.55
2023-05-25T13:51:56.393Z,4.60
2023-05-25T13:52:58.288Z,4.63
2023-05-25T13:54:00.100Z,4.75
2023-05-25T13:55:02.102Z,4.50
2023-05-25T13:56:04.063Z,4.53
2023-05-25T13:57:07.497Z,4.47
2023-05-25T13:58:09.645Z,5.13
2023-05-25T13:59:11.589Z,4.80
2023-05-25T14:00:14.658Z,4.85
2023-05-25T14:01:16.754Z,4.25
2023-05-25T14:02:18.673Z,4.70
2023-05-25T14:03:20.800Z,5.32
2023-05-25T14:04:23.358Z,4.50
2023-05-25T14:05:25.401Z,4.93
2023-05-25T14:06:27.549Z,4.90
2023-05-25T14:07:29.497Z,4.50
2023-05-25T14:08:31.506Z,4.53
2023-05-25T14:09:33.317Z,5.25
2023-05-25T14:10:35.232Z,4.97